Terminal Aerodrome Forecast
Issued by NWS

Current Version | Previous Version | Graphics & Text | Print | Product List | Glossary On
Versions: 1 2 3 4 5 6 7 8 9 10 11 12 13 14 15
931
FTUS41 KILN 251923 AAA
TAFLCK
TAF AMD
KLCK 251923Z 2519/2618 28014G24KT P6SM SCT040
     FM260100 26006KT P6SM SCT200
     FM261400 26010KT P6SM BKN050=

USA.gov is the U.S. government's official web portal to all federal, state and local government web resources and services.